Time;durP1;ratioP1;P1;durP2;ratioP2;P2;SDS_P1;SDS_P2;PMS_P1;PMS_P2;Temp;Humidity;BMP_temperature;BMP_pressure;BME280_temperature;BME280_humidity;BME280_pressure;Samples;Min_cycle;Max_cycle;Signal;HPM_P1;HPM_P2
2023/05/31 00:01:34;;;;;;;7.75;7.15;;;;;;;14.92;100.00;95337.91;4875058;29;20045;-85
2023/05/31 00:03:59;;;;;;;8.48;7.88;;;;;;;14.83;100.00;95339.03;4862015;29;20031;-85
2023/05/31 00:06:25;;;;;;;9.40;8.27;;;;;;;14.94;100.00;95351.56;4850021;29;20032;-86
2023/05/31 00:08:50;;;;;;;8.50;7.75;;;;;;;14.91;100.00;95344.13;4850201;29;20037;-84
2023/05/31 00:11:16;;;;;;;8.80;7.85;;;;;;;14.93;100.00;95357.00;4840003;29;20033;-84
2023/05/31 00:13:41;;;;;;;7.70;7.20;;;;;;;14.99;100.00;95362.25;4865053;29;20043;-83
2023/05/31 00:16:08;;;;;;;11.43;7.60;;;;;;;14.95;100.00;95371.44;4845427;29;20044;-83
2023/05/31 00:18:34;;;;;;;15.82;9.55;;;;;;;14.74;100.00;95411.34;4865568;29;20567;-84
2023/05/31 00:21:00;;;;;;;9.65;8.75;;;;;;;14.69;100.00;95452.84;4852624;29;20092;-84
2023/05/31 00:23:25;;;;;;;8.18;7.53;;;;;;;14.82;100.00;95459.19;4862008;29;20054;-84
2023/05/31 00:25:50;;;;;;;9.98;9.07;;;;;;;14.90;100.00;95451.25;4863944;29;20037;-85
2023/05/31 00:28:16;;;;;;;8.38;7.63;;;;;;;14.91;100.00;95430.19;4849546;29;20483;-83
2023/05/31 00:30:42;;;;;;;9.05;8.15;;;;;;;14.86;100.00;95424.75;4864369;29;20100;-83
2023/05/31 00:33:08;;;;;;;9.48;8.68;;;;;;;14.58;100.00;95432.44;4853417;29;20033;-87
2023/05/31 00:35:33;;;;;;;9.90;8.43;;;;;;;14.73;100.00;95454.09;4839931;29;20546;-86
2023/05/31 00:38:03;;;;;;;10.00;9.00;;;;;;;14.57;100.00;95446.47;4838448;29;20029;-86
2023/05/31 00:40:28;;;;;;;9.38;8.68;;;;;;;14.69;100.00;95450.22;4855937;29;20602;-85
2023/05/31 00:42:54;;;;;;;9.65;8.85;;;;;;;14.59;100.00;95439.28;4852394;29;20032;-85
2023/05/31 00:45:19;;;;;;;8.93;8.23;;;;;;;14.61;100.00;95450.31;4849641;29;20041;-86
2023/05/31 00:47:45;;;;;;;8.80;7.95;;;;;;;14.72;100.00;95460.28;4866331;29;20041;-86
2023/05/31 00:50:11;;;;;;;9.77;8.90;;;;;;;14.60;100.00;95466.16;4865395;29;20029;-86
2023/05/31 00:52:36;;;;;;;10.93;7.90;;;;;;;14.57;100.00;95472.56;4866226;29;20515;-85
2023/05/31 00:55:02;;;;;;;8.80;7.50;;;;;;;14.64;100.00;95473.41;4864765;29;20037;-85
2023/05/31 00:57:28;;;;;;;12.95;8.55;;;;;;;14.60;100.00;95459.16;4845096;29;20029;-85
2023/05/31 00:59:53;;;;;;;11.68;9.60;;;;;;;14.47;100.00;95458.19;4864329;29;20447;-84
2023/05/31 01:02:19;;;;;;;9.50;8.52;;;;;;;14.56;100.00;95465.72;4872020;29;20143;-83
2023/05/31 01:04:44;;;;;;;8.88;8.07;;;;;;;14.63;100.00;95460.56;4865131;29;20029;-85
2023/05/31 01:07:10;;;;;;;10.48;9.57;;;;;;;14.59;100.00;95454.09;4847971;29;20479;-86
2023/05/31 01:09:37;;;;;;;8.60;7.82;;;;;;;14.55;100.00;95460.66;4865311;29;20037;-85
2023/05/31 01:12:27;;;;;;;9.25;8.55;;;;;;;14.54;100.00;95466.88;4879305;29;20040;-86
2023/05/31 01:14:58;;;;;;;10.88;8.40;;;;;;;14.60;100.00;95471.38;4849456;29;20033;-84
2023/05/31 01:17:50;;;;;;;8.63;7.78;;;;;;;14.60;100.00;95466.16;4864669;29;20124;-85
2023/05/31 01:20:17;;;;;;;8.15;7.45;;;;;;;14.70;100.00;95471.91;4837953;29;20100;-84
2023/05/31 01:23:11;;;;;;;12.10;8.63;;;;;;;14.70;100.00;95479.72;4848923;29;20036;-84
2023/05/31 01:25:51;;;;;;;9.50;7.90;;;;;;;14.54;100.00;95477.31;4864350;29;20439;-83
2023/05/31 01:28:18;;;;;;;9.20;8.60;;;;;;;14.52;100.00;95494.91;4866268;29;20029;-84
2023/05/31 01:30:45;;;;;;;9.82;8.88;;;;;;;14.57;100.00;95495.19;4847600;29;20029;-83
2023/05/31 01:33:11;;;;;;;12.63;8.40;;;;;;;14.60;100.00;95502.66;4848573;29;20132;-83
2023/05/31 01:35:37;;;;;;;9.90;8.55;;;;;;;14.65;100.00;95492.47;4846891;29;20033;-83
2023/05/31 01:38:02;;;;;;;8.52;7.78;;;;;;;14.62;100.00;95491.06;4833129;29;20036;-84
2023/05/31 01:40:28;;;;;;;9.30;8.63;;;;;;;14.56;100.00;95491.78;4865553;29;20424;-83
2023/05/31 01:42:54;;;;;;;9.40;8.40;;;;;;;14.63;100.00;95499.69;4848116;29;20815;-83
2023/05/31 01:45:21;;;;;;;13.52;8.95;;;;;;;14.66;100.00;95489.69;4865519;29;20040;-84
2023/05/31 01:47:47;;;;;;;9.50;8.32;;;;;;;14.68;100.00;95505.97;4851623;29;20032;-80
2023/05/31 01:50:13;;;;;;;10.20;9.05;;;;;;;14.68;100.00;95512.97;4836292;29;20566;-82
2023/05/31 01:52:39;;;;;;;9.05;8.25;;;;;;;14.77;100.00;95514.47;4851397;29;20432;-83
2023/05/31 01:55:05;;;;;;;9.48;8.57;;;;;;;14.71;100.00;95510.81;4850841;29;20040;-82
2023/05/31 01:57:34;;;;;;;9.50;8.65;;;;;;;14.74;100.00;95522.66;4852492;29;20594;-82
2023/05/31 02:00:00;;;;;;;8.85;8.10;;;;;;;14.78;100.00;95521.31;4867474;29;20729;-82
2023/05/31 02:02:27;;;;;;;13.02;9.27;;;;;;;14.74;100.00;95520.06;4862138;29;20060;-83
2023/05/31 02:05:11;;;;;;;9.50;8.55;;;;;;;14.67;100.00;95522.59;4849289;29;20082;-83
2023/05/31 02:07:40;;;;;;;9.40;8.50;;;;;;;14.52;100.00;95520.97;4818793;29;20073;-80
2023/05/31 02:10:07;;;;;;;10.20;8.80;;;;;;;14.60;100.00;95539.16;4832908;29;20041;-79
2023/05/31 02:12:32;;;;;;;9.68;8.77;;;;;;;14.68;100.00;95544.25;4833114;29;20104;-82
2023/05/31 02:14:58;;;;;;;9.75;8.85;;;;;;;14.68;100.00;95539.03;4832516;29;20453;-83
2023/05/31 02:17:24;;;;;;;9.63;8.73;;;;;;;14.71;100.00;95546.50;4832255;29;20032;-81
2023/05/31 02:19:51;;;;;;;10.25;9.43;;;;;;;14.63;100.00;95538.78;4840769;29;20503;-82
2023/05/31 02:22:17;;;;;;;9.95;9.15;;;;;;;14.70;100.00;95537.09;4852309;29;20034;-83
2023/05/31 02:24:42;;;;;;;9.15;8.25;;;;;;;14.67;100.00;95530.41;4833390;29;20488;-83
2023/05/31 02:27:08;;;;;;;10.70;9.80;;;;;;;14.70;100.00;95532.66;4849483;29;20037;-83
2023/05/31 02:29:34;;;;;;;9.65;8.88;;;;;;;14.72;100.00;95543.72;4852191;29;20738;-83
2023/05/31 02:31:59;;;;;;;8.82;8.10;;;;;;;14.69;100.00;95544.09;4854712;29;20480;-81
2023/05/31 02:34:26;;;;;;;9.00;8.25;;;;;;;14.70;100.00;95552.72;4850021;29;20034;-82
2023/05/31 02:36:52;;;;;;;9.75;8.95;;;;;;;14.68;100.00;95554.69;4850028;29;20033;-81
2023/05/31 02:39:18;;;;;;;12.30;9.10;;;;;;;14.63;100.00;95555.25;4816388;29;21681;-82
2023/05/31 02:41:43;;;;;;;9.38;8.45;;;;;;;14.69;100.00;95556.31;4849860;29;20026;-81
2023/05/31 02:44:09;;;;;;;11.32;8.63;;;;;;;14.66;100.00;95559.28;4848905;29;20082;-82
2023/05/31 02:46:35;;;;;;;10.18;9.38;;;;;;;14.69;100.00;95564.13;4850654;29;20527;-80
2023/05/31 02:49:00;;;;;;;9.63;8.82;;;;;;;14.63;100.00;95560.47;4848915;29;20033;-82
2023/05/31 02:51:25;;;;;;;10.18;9.15;;;;;;;14.55;100.00;95565.75;4861109;29;20527;-81
2023/05/31 02:53:51;;;;;;;10.27;9.15;;;;;;;14.56;100.00;95569.16;4849498;29;20033;-84
2023/05/31 02:56:16;;;;;;;10.32;9.30;;;;;;;14.57;100.00;95581.22;4848574;29;20469;-82
2023/05/31 02:58:42;;;;;;;10.43;9.30;;;;;;;14.51;100.00;95576.72;4832469;29;20666;-84
2023/05/31 03:01:08;;;;;;;15.88;10.10;;;;;;;14.42;100.00;95580.38;4848271;29;20025;-85
2023/05/31 03:03:33;;;;;;;10.25;9.15;;;;;;;14.46;100.00;95589.47;4849090;29;20036;-86
2023/05/31 03:05:59;;;;;;;10.45;9.48;;;;;;;14.53;100.00;95593.00;4848414;29;20097;-83
2023/05/31 03:08:24;;;;;;;9.80;8.75;;;;;;;14.57;100.00;95591.66;4847245;29;20495;-83
2023/05/31 03:10:50;;;;;;;10.43;8.63;;;;;;;14.52;100.00;95575.72;4814159;29;20038;-85
2023/05/31 03:13:15;;;;;;;10.40;9.52;;;;;;;14.60;100.00;95570.44;4825237;29;20057;-84
2023/05/31 03:15:41;;;;;;;10.07;9.05;;;;;;;14.60;100.00;95555.59;4831735;29;20461;-83
2023/05/31 03:18:07;;;;;;;11.20;10.10;;;;;;;14.71;100.00;95552.53;4847616;29;20559;-83
2023/05/31 03:20:33;;;;;;;10.63;9.70;;;;;;;14.76;100.00;95544.19;4831418;29;20042;-84
2023/05/31 03:22:59;;;;;;;11.45;10.30;;;;;;;14.80;100.00;95550.66;4848409;29;20077;-83
2023/05/31 03:25:25;;;;;;;10.30;9.27;;;;;;;14.85;100.00;95530.03;4816662;29;20056;-82
2023/05/31 03:27:50;;;;;;;10.45;9.65;;;;;;;14.87;100.00;95540.28;4848804;29;20469;-83
2023/05/31 03:30:16;;;;;;;9.70;8.88;;;;;;;14.90;100.00;95539.94;4831156;29;20037;-83
2023/05/31 03:32:41;;;;;;;11.05;10.25;;;;;;;14.94;100.00;95530.75;4848587;29;20055;-83
2023/05/31 03:35:07;;;;;;;10.35;9.38;;;;;;;14.95;100.00;95527.97;4846848;29;20036;-83
2023/05/31 03:37:33;;;;;;;10.15;9.23;;;;;;;15.01;100.00;95519.41;4849139;29;20061;-83
2023/05/31 03:39:58;;;;;;;8.95;7.60;;;;;;;15.07;100.00;95505.63;4848137;29;20040;-82
2023/05/31 03:42:23;;;;;;;8.70;8.05;;;;;;;15.14;100.00;95490.84;4848200;29;20033;-82
2023/05/31 03:44:49;;;;;;;8.98;8.27;;;;;;;15.19;100.00;95451.94;4845890;29;20488;-82
2023/05/31 03:47:15;;;;;;;9.55;8.45;;;;;;;15.29;100.00;95434.16;4848052;29;20033;-82
2023/05/31 03:49:41;;;;;;;12.05;8.50;;;;;;;15.41;100.00;95415.41;4831210;29;20088;-82
2023/05/31 03:52:08;;;;;;;13.43;8.30;;;;;;;15.46;100.00;95411.22;4830878;29;20029;-82
2023/05/31 03:54:35;;;;;;;10.55;9.57;;;;;;;15.62;100.00;95423.22;4848540;29;20553;-84
2023/05/31 03:57:00;;;;;;;10.77;9.80;;;;;;;15.55;100.00;95445.84;4818124;29;20033;-85
2023/05/31 03:59:26;;;;;;;10.75;9.35;;;;;;;15.63;100.00;95445.72;4831732;29;20097;-83
2023/05/31 04:01:51;;;;;;;10.35;9.45;;;;;;;15.68;100.00;95435.50;4852747;29;20061;-83
2023/05/31 04:04:17;;;;;;;10.05;8.20;;;;;;;15.68;100.00;95422.44;4865044;29;20029;-84
2023/05/31 04:06:43;;;;;;;8.80;8.15;;;;;;;15.69;100.00;95411.03;4865914;29;20032;-84
2023/05/31 04:09:08;;;;;;;10.23;9.27;;;;;;;15.65;100.00;95420.22;4849599;29;20053;-83
2023/05/31 04:11:34;;;;;;;8.45;7.75;;;;;;;15.62;100.00;95405.75;4865075;29;20033;-83
2023/05/31 04:13:59;;;;;;;8.13;7.53;;;;;;;15.67;100.00;95381.66;4864370;29;20037;-83
2023/05/31 04:16:25;;;;;;;9.38;8.55;;;;;;;15.74;100.00;95370.25;4866705;29;20222;-85
2023/05/31 04:18:51;;;;;;;10.13;8.68;;;;;;;15.87;100.00;95382.59;4865305;29;20120;-86
2023/05/31 04:21:17;;;;;;;8.63;7.90;;;;;;;15.95;100.00;95368.56;4866592;29;20407;-84
2023/05/31 04:23:43;;;;;;;8.90;8.20;;;;;;;16.06;100.00;95358.38;4865708;29;20037;-84
2023/05/31 04:26:08;;;;;;;10.30;9.50;;;;;;;15.77;100.00;95388.16;4866544;29;20033;-86
2023/05/31 04:28:34;;;;;;;8.80;8.10;;;;;;;15.91;100.00;95443.91;4866920;29;20028;-85
2023/05/31 04:31:00;;;;;;;9.85;8.95;;;;;;;16.13;100.00;95437.63;4865080;29;20100;-86
2023/05/31 04:33:29;;;;;;;9.20;8.50;;;;;;;16.07;100.00;95419.28;4858988;29;20127;-86
2023/05/31 04:35:56;;;;;;;9.67;8.70;;;;;;;16.42;100.00;95393.91;4848394;29;20059;-85
2023/05/31 04:38:27;;;;;;;8.57;7.40;;;;;;;16.64;100.00;95332.66;4867149;29;20507;-85
2023/05/31 04:40:54;;;;;;;8.25;7.20;;;;;;;16.90;100.00;95275.13;4864146;29;20037;-86
2023/05/31 04:43:19;;;;;;;8.15;7.40;;;;;;;17.15;100.00;95251.75;4852232;29;20563;-85
2023/05/31 04:45:45;;;;;;;8.18;7.57;;;;;;;17.38;100.00;95229.34;4866186;29;20214;-86
2023/05/31 04:48:11;;;;;;;7.32;6.78;;;;;;;17.45;100.00;95155.19;4866178;29;20025;-87
2023/05/31 04:50:37;;;;;;;6.55;6.10;;;;;;;17.74;100.00;95113.59;4862753;29;20101;-85
2023/05/31 04:53:03;;;;;;;7.15;5.75;;;;;;;18.27;100.00;95079.91;4848211;29;20052;-85
2023/05/31 04:55:28;;;;;;;6.28;5.40;;;;;;;18.56;100.00;95054.09;4866862;29;20033;-86
2023/05/31 04:57:54;;;;;;;5.65;5.25;;;;;;;18.40;100.00;95008.19;4865987;29;20040;-86
2023/05/31 05:00:19;;;;;;;7.45;5.07;;;;;;;18.86;100.00;95002.47;4866595;29;20021;-88
2023/05/31 05:02:45;;;;;;;5.55;4.15;;;;;;;18.90;100.00;94985.25;4879506;29;20136;-86
2023/05/31 05:05:11;;;;;;;5.57;4.63;;;;;;;18.81;100.00;94976.09;4879764;29;20033;-87
2023/05/31 05:07:37;;;;;;;5.68;5.10;;;;;;;18.64;100.00;94980.31;4885762;29;20119;-86
2023/05/31 05:10:03;;;;;;;4.97;4.47;;;;;;;18.56;100.00;94989.28;4882090;29;20037;-86
2023/05/31 05:12:29;;;;;;;4.53;4.22;;;;;;;18.08;100.00;94989.13;4873147;29;20648;-86
2023/05/31 05:14:54;;;;;;;5.15;4.72;;;;;;;18.24;100.00;95006.13;4884307;29;20111;-88
2023/05/31 05:17:20;;;;;;;4.60;4.30;;;;;;;18.40;100.00;95003.72;4868086;29;20032;-83
2023/05/31 05:19:46;;;;;;;5.63;4.43;;;;;;;18.71;100.00;94996.78;4877314;29;20193;-86
2023/05/31 05:22:11;;;;;;;5.40;5.00;;;;;;;18.36;100.00;95004.41;4859852;29;20422;-85
2023/05/31 05:24:36;;;;;;;5.95;5.45;;;;;;;18.45;100.00;95024.09;4859609;29;20097;-86
2023/05/31 05:27:02;;;;;;;7.07;5.03;;;;;;;18.40;100.00;95023.91;4857422;29;20482;-85
2023/05/31 05:29:28;;;;;;;6.85;5.93;;;;;;;18.14;100.00;95045.94;4873263;29;20029;-93
2023/05/31 05:31:53;;;;;;;5.07;4.57;;;;;;;18.54;100.00;95035.13;4871805;29;20028;-85
2023/05/31 05:34:22;;;;;;;5.15;4.82;;;;;;;18.72;100.00;95019.41;4861111;29;20065;-85
2023/05/31 05:36:47;;;;;;;5.40;4.93;;;;;;;18.77;100.00;95025.59;4868019;29;20044;-85
2023/05/31 05:39:12;;;;;;;5.75;5.05;;;;;;;18.72;100.00;95022.03;4880474;29;20033;-84
2023/05/31 05:41:38;;;;;;;5.05;4.53;;;;;;;18.89;100.00;95046.63;4867601;29;20032;-84
2023/05/31 05:44:03;;;;;;;5.80;5.28;;;;;;;18.46;100.00;95040.63;4869428;29;20112;-85
2023/05/31 05:46:28;;;;;;;8.32;5.57;;;;;;;18.75;100.00;95045.19;4848251;29;20187;-84
2023/05/31 05:48:54;;;;;;;5.45;4.88;;;;;;;18.37;100.00;95025.16;4843268;29;20064;-87
2023/05/31 05:51:19;;;;;;;5.30;4.70;;;;;;;18.47;100.00;95014.16;4869806;29;20135;-90
2023/05/31 05:53:45;;;;;;;4.50;4.15;;;;;;;18.63;100.00;95033.81;4868689;29;20120;-82
2023/05/31 05:56:19;;;;;;;7.75;4.40;;;;;;;18.45;100.00;95037.19;4869292;29;20029;-81
2023/05/31 05:58:46;;;;;;;6.75;4.78;;;;;;;18.64;100.00;95032.78;4855166;29;20547;-81
2023/05/31 06:01:14;;;;;;;5.35;4.85;;;;;;;19.03;100.00;95040.22;4876669;29;20032;-79
2023/05/31 06:03:40;;;;;;;5.22;4.80;;;;;;;19.12;100.00;95031.03;4887199;29;20554;-80
2023/05/31 06:06:05;;;;;;;10.77;5.13;;;;;;;19.36;100.00;95021.44;4867902;29;20028;-85
2023/05/31 06:08:31;;;;;;;6.10;5.30;;;;;;;18.84;100.00;95020.25;4862963;29;20475;-83
2023/05/31 06:10:56;;;;;;;5.80;4.90;;;;;;;19.50;100.00;95022.06;4865627;29;20507;-86
2023/05/31 06:13:22;;;;;;;7.45;5.25;;;;;;;19.84;100.00;95009.00;4876763;29;20024;-82
2023/05/31 06:15:47;;;;;;;5.18;4.78;;;;;;;20.22;100.00;94999.88;4868507;29;20035;-83
2023/05/31 06:18:14;;;;;;;5.95;4.95;;;;;;;20.27;100.00;95000.81;4869569;29;20096;-86
2023/05/31 06:20:41;;;;;;;5.07;4.68;;;;;;;19.62;100.00;95001.88;4865561;29;20079;-91
2023/05/31 06:23:06;;;;;;;5.70;5.25;;;;;;;20.34;100.00;94995.44;4868294;29;20087;-91
2023/05/31 06:25:33;;;;;;;7.93;4.65;;;;;;;19.85;100.00;94999.28;4871798;29;20693;-87
2023/05/31 06:27:58;;;;;;;5.05;4.32;;;;;;;20.11;100.00;94998.84;4883915;29;20037;-85
2023/05/31 06:30:24;;;;;;;5.05;4.65;;;;;;;20.46;100.00;94990.97;4871547;29;20510;-90
2023/05/31 06:32:49;;;;;;;7.78;4.85;;;;;;;20.67;100.00;94982.50;4849798;29;20048;-87
2023/05/31 06:35:15;;;;;;;5.40;4.80;;;;;;;21.19;100.00;94983.25;4868741;29;20140;-78
2023/05/31 06:37:41;;;;;;;5.13;4.60;;;;;;;21.14;100.00;94975.28;4875188;29;20033;-86
2023/05/31 06:40:08;;;;;;;5.25;4.70;;;;;;;21.36;100.00;94976.19;4863832;29;20029;-85
2023/05/31 06:42:33;;;;;;;5.80;4.70;;;;;;;21.61;100.00;94972.41;4866642;29;20051;-85
2023/05/31 06:45:00;;;;;;;5.43;4.85;;;;;;;21.90;100.00;94969.50;4867479;29;20118;-93
2023/05/31 06:47:25;;;;;;;5.65;4.35;;;;;;;22.19;100.00;94961.47;4862599;29;20033;-86
2023/05/31 06:49:51;;;;;;;5.32;4.78;;;;;;;22.80;98.75;94961.25;4865123;29;20100;-89
2023/05/31 06:52:16;;;;;;;4.63;4.30;;;;;;;23.49;95.25;94956.22;4860621;29;20035;-88
2023/05/31 06:54:42;;;;;;;5.82;4.80;;;;;;;23.27;90.86;94961.53;4863250;29;20033;-80
2023/05/31 06:57:08;;;;;;;9.68;4.55;;;;;;;23.74;92.28;94958.28;4862354;29;20068;-85
2023/05/31 06:59:33;;;;;;;4.80;3.90;;;;;;;24.51;86.79;94958.59;4865100;29;20072;-84
2023/05/31 07:01:59;;;;;;;4.60;4.30;;;;;;;24.30;89.89;94957.69;4867096;29;20149;-81
2023/05/31 07:04:25;;;;;;;5.18;4.68;;;;;;;24.73;83.84;94951.28;4863861;29;20120;-80
2023/05/31 07:06:50;;;;;;;4.57;4.10;;;;;;;25.79;74.39;94950.78;4860457;29;20037;-86
2023/05/31 07:09:16;;;;;;;4.75;4.35;;;;;;;25.63;76.37;94952.63;4864826;29;20037;-83
2023/05/31 07:11:42;;;;;;;4.68;4.28;;;;;;;24.90;81.01;94951.09;4866827;29;20106;-81
2023/05/31 07:14:09;;;;;;;4.72;4.32;;;;;;;24.85;80.85;94957.19;4866568;29;20075;-83
2023/05/31 07:16:34;;;;;;;4.32;4.03;;;;;;;23.98;85.05;94960.34;4855409;29;20029;-82
2023/05/31 07:19:00;;;;;;;4.75;4.22;;;;;;;25.11;83.49;94953.56;4864531;29;20392;-83
2023/05/31 07:21:25;;;;;;;4.85;4.32;;;;;;;25.72;72.27;94956.34;4867143;29;20574;-80
2023/05/31 07:23:51;;;;;;;4.57;4.28;;;;;;;25.19;73.82;94957.56;4868903;29;20551;-82
2023/05/31 07:26:17;;;;;;;4.57;4.25;;;;;;;25.59;73.75;94954.25;4858145;29;20056;-84
2023/05/31 07:28:43;;;;;;;4.25;3.85;;;;;;;25.97;76.77;94953.72;4860203;29;20041;-83
2023/05/31 07:31:09;;;;;;;6.78;4.15;;;;;;;25.24;72.88;94946.19;4867646;29;20427;-80
2023/05/31 07:33:34;;;;;;;5.07;4.50;;;;;;;25.27;74.73;94953.63;4856448;29;20041;-81
2023/05/31 07:36:00;;;;;;;4.63;4.32;;;;;;;24.43;75.19;94949.28;4884002;29;20032;-83
2023/05/31 07:38:26;;;;;;;5.80;4.63;;;;;;;24.98;82.51;94946.09;4866922;29;20029;-78
2023/05/31 07:40:51;;;;;;;9.88;4.70;;;;;;;23.97;83.64;94950.00;4849062;29;20041;-80
2023/05/31 07:43:21;;;;;;;5.32;4.70;;;;;;;24.02;86.48;94948.19;4870641;29;20020;-88
2023/05/31 07:45:47;;;;;;;4.80;4.40;;;;;;;23.72;86.33;94950.63;4869816;29;20033;-90
2023/05/31 07:48:12;;;;;;;7.03;4.97;;;;;;;23.48;89.73;94949.31;4860786;29;20037;-88
2023/05/31 07:50:38;;;;;;;6.43;4.80;;;;;;;23.52;93.35;94948.59;4863659;29;20096;-83
2023/05/31 07:53:03;;;;;;;5.95;5.00;;;;;;;23.50;93.73;94950.66;4856824;29;20349;-83
2023/05/31 07:55:29;;;;;;;5.78;5.30;;;;;;;23.28;93.18;94941.97;4859719;29;20040;-87
2023/05/31 07:57:54;;;;;;;4.45;4.13;;;;;;;23.33;95.84;94949.97;4862521;29;20044;-91
2023/05/31 08:00:20;;;;;;;5.40;5.00;;;;;;;23.31;98.42;94952.03;4863330;29;20136;-85
2023/05/31 08:02:46;;;;;;;7.00;5.38;;;;;;;23.23;92.99;94944.56;4857658;29;20094;-83
2023/05/31 08:05:13;;;;;;;5.55;5.05;;;;;;;23.42;93.18;94943.19;4842303;29;20025;-84
2023/05/31 08:07:38;;;;;;;5.80;4.78;;;;;;;23.37;96.74;94944.97;4864613;29;20032;-86
2023/05/31 08:10:04;;;;;;;6.85;5.15;;;;;;;23.30;97.67;94944.38;4864865;29;20032;-83
2023/05/31 08:12:31;;;;;;;6.03;5.07;;;;;;;23.26;93.97;94937.97;4857552;29;20420;-77
2023/05/31 08:14:56;;;;;;;6.43;4.80;;;;;;;23.41;89.88;94936.31;4861593;29;20111;-86
2023/05/31 08:17:21;;;;;;;5.43;5.03;;;;;;;23.69;87.15;94937.09;4860665;29;20120;-82
2023/05/31 08:19:47;;;;;;;5.28;4.68;;;;;;;23.93;91.19;94936.47;4858254;29;20375;-81
2023/05/31 08:22:12;;;;;;;6.45;5.05;;;;;;;24.02;88.46;94939.44;4848259;29;20650;-81
2023/05/31 08:24:38;;;;;;;5.45;5.00;;;;;;;23.17;86.34;94935.00;4859568;29;20030;-83
2023/05/31 08:27:03;;;;;;;6.00;5.07;;;;;;;23.13;81.59;94931.25;4866127;29;20039;-82
2023/05/31 08:29:30;;;;;;;5.20;4.80;;;;;;;23.32;77.61;94927.22;4863950;29;20036;-86
2023/05/31 08:31:55;;;;;;;9.15;4.75;;;;;;;23.41;79.28;94931.03;4866260;29;20084;-82
2023/05/31 08:34:21;;;;;;;7.53;4.43;;;;;;;23.46;78.82;94933.72;4864350;29;20037;-83
2023/05/31 08:36:47;;;;;;;5.25;4.60;;;;;;;23.61;74.67;94930.41;4863380;29;20037;-81
2023/05/31 08:39:12;;;;;;;5.93;4.45;;;;;;;24.41;84.67;94924.09;4861403;29;20036;-81
2023/05/31 08:41:50;;;;;;;5.68;4.25;;;;;;;24.37;81.83;94920.38;4869105;29;20913;-84
2023/05/31 08:44:17;;;;;;;6.28;3.72;;;;;;;23.64;74.84;94911.38;4874248;29;20051;-83
2023/05/31 08:46:45;;;;;;;6.30;3.88;;;;;;;22.92;82.48;94922.31;4865274;29;20492;-81
2023/05/31 08:49:13;;;;;;;4.60;3.63;;;;;;;23.68;76.05;94922.25;4865938;29;20500;-79
2023/05/31 08:51:40;;;;;;;3.75;3.45;;;;;;;23.98;67.93;94911.91;4856343;29;20493;-81
2023/05/31 08:54:06;;;;;;;5.28;3.67;;;;;;;23.50;72.93;94908.34;4849452;29;20040;-79
2023/05/31 08:56:32;;;;;;;5.45;3.33;;;;;;;22.93;78.04;94905.41;4865074;29;20595;-81
2023/05/31 08:58:58;;;;;;;4.18;3.40;;;;;;;22.67;80.29;94905.38;4849074;29;20037;-83
2023/05/31 09:01:24;;;;;;;5.40;3.08;;;;;;;21.88;81.57;94902.16;4866138;29;20443;-77
2023/05/31 09:03:51;;;;;;;5.13;3.05;;;;;;;22.17;79.48;94903.66;4848166;29;20519;-80
2023/05/31 09:06:17;;;;;;;4.72;3.42;;;;;;;22.96;79.22;94898.81;4857838;29;20887;-82
2023/05/31 09:08:43;;;;;;;3.92;3.60;;;;;;;22.81;81.19;94909.22;4864676;29;20128;-79
2023/05/31 09:11:09;;;;;;;3.78;3.00;;;;;;;21.92;84.16;94906.75;4866397;29;20033;-80
2023/05/31 09:13:34;;;;;;;4.40;3.22;;;;;;;22.29;84.91;94901.72;4863952;29;20041;-80
2023/05/31 09:16:01;;;;;;;3.47;3.17;;;;;;;23.13;79.38;94896.09;4865518;29;20044;-86
2023/05/31 09:18:31;;;;;;;3.33;3.03;;;;;;;23.19;81.86;94887.97;4863491;29;20035;-86
2023/05/31 09:20:58;;;;;;;3.80;3.45;;;;;;;22.43;83.16;94891.59;4864458;29;20033;-82
2023/05/31 09:23:23;;;;;;;4.43;3.50;;;;;;;22.59;86.68;94888.91;4866095;29;20033;-83
2023/05/31 09:25:52;;;;;;;4.28;3.22;;;;;;;22.71;81.87;94895.91;4865260;29;20033;-81
2023/05/31 09:28:18;;;;;;;;;;;;;;;22.65;80.31;94883.66;4867414;29;20025;-83
2023/05/31 09:30:44;;;;;;;5.38;3.35;;;;;;;23.19;83.28;94876.56;4864918;29;19970;-77
2023/05/31 09:33:10;;;;;;;6.47;3.33;;;;;;;23.96;82.11;94869.81;4866153;29;20033;-82
2023/05/31 09:35:35;;;;;;;4.60;3.00;;;;;;;23.45;80.08;94865.22;4865993;29;20601;-81
2023/05/31 09:38:07;;;;;;;4.57;3.33;;;;;;;22.72;76.81;94871.91;4864835;29;20115;-85
2023/05/31 09:40:33;;;;;;;5.32;4.32;;;;;;;22.75;82.24;94876.69;4866202;29;20033;-79
2023/05/31 09:42:59;;;;;;;4.25;3.33;;;;;;;22.51;81.32;94867.38;4864880;29;20459;-77
2023/05/31 09:45:25;;;;;;;4.25;3.35;;;;;;;22.25;84.32;94876.84;4866427;29;20025;-78
2023/05/31 09:47:51;;;;;;;4.70;3.33;;;;;;;22.70;84.36;94868.69;4864697;29;20073;-80
2023/05/31 09:50:18;;;;;;;5.65;3.40;;;;;;;22.95;80.34;94868.97;4866101;29;20136;-83
2023/05/31 09:52:44;;;;;;;4.65;3.83;;;;;;;22.64;81.72;94871.50;4863780;29;20025;-83
2023/05/31 09:55:13;;;;;;;3.75;3.35;;;;;;;22.22;84.87;94855.44;4856648;29;20037;-80
2023/05/31 09:57:40;;;;;;;7.82;3.40;;;;;;;22.32;83.15;94856.34;4857744;29;20042;-77
2023/05/31 10:00:17;;;;;;;5.80;3.78;;;;;;;21.91;84.71;94856.88;4835610;29;20076;-78
2023/05/31 10:02:48;;;;;;;4.20;3.90;;;;;;;22.85;83.53;94863.59;4854627;29;20053;-82
2023/05/31 10:05:15;;;;;;;6.25;3.42;;;;;;;22.78;79.06;94862.19;4856598;29;20744;-78
2023/05/31 10:07:41;;;;;;;4.43;3.08;;;;;;;22.38;84.08;94862.50;4846706;29;20065;-79
2023/05/31 10:10:08;;;;;;;5.32;3.33;;;;;;;22.64;83.75;94866.22;4867597;29;20079;-83
2023/05/31 10:12:40;;;;;;;3.88;3.40;;;;;;;22.70;83.32;94865.28;4868048;29;20819;-84
2023/05/31 10:15:10;;;;;;;3.42;3.13;;;;;;;22.82;82.57;94858.81;4868359;29;20108;-83
2023/05/31 10:17:39;;;;;;;4.05;3.65;;;;;;;22.38;82.00;94863.28;4868236;29;20047;-85
2023/05/31 10:20:07;;;;;;;4.30;3.55;;;;;;;22.66;81.56;94850.97;4866955;29;20025;-84
2023/05/31 10:22:36;;;;;;;3.78;3.47;;;;;;;22.71;81.98;94862.38;4866658;29;20057;-91
2023/05/31 10:25:07;;;;;;;3.77;3.13;;;;;;;22.62;82.61;94849.81;4865059;29;20546;-83
2023/05/31 10:27:38;;;;;;;3.28;3.08;;;;;;;22.92;76.85;94850.19;4867204;29;20127;-81
2023/05/31 10:30:04;;;;;;;4.30;4.00;;;;;;;22.71;80.54;94845.72;4868007;29;20043;-76
2023/05/31 10:32:34;;;;;;;4.55;3.70;;;;;;;22.53;81.02;94852.91;4853951;29;20041;-83
2023/05/31 10:35:01;;;;;;;4.10;3.15;;;;;;;22.36;77.42;94838.97;4851148;29;20033;-84
2023/05/31 10:37:27;;;;;;;6.10;3.60;;;;;;;22.86;75.60;94843.25;4852507;29;20464;-81
2023/05/31 10:40:18;;;;;;;4.43;3.33;;;;;;;23.55;73.81;94852.88;4866900;29;20409;-84
2023/05/31 10:42:47;;;;;;;4.85;3.60;;;;;;;23.71;71.59;94850.31;4826851;29;20515;-82
2023/05/31 10:45:37;;;;;;;4.20;3.80;;;;;;;23.15;76.09;94844.56;4868191;29;20089;-86
2023/05/31 10:48:18;;;;;;;6.05;3.17;;;;;;;23.74;75.49;94839.22;4866311;29;20101;-84
2023/05/31 10:50:57;;;;;;;7.88;4.07;;;;;;;23.27;68.57;94855.78;4867300;29;20539;-81
2023/05/31 10:53:24;;;;;;;;;;;;;;;22.98;71.31;94857.09;4868455;29;20056;-79
2023/05/31 10:55:49;;;;;;;4.13;3.80;;;;;;;22.67;70.29;94849.94;4866850;29;19926;-87
2023/05/31 10:58:26;;;;;;;6.68;4.50;;;;;;;23.06;71.64;94843.44;4868286;29;20033;-80
2023/05/31 11:00:54;;;;;;;5.78;4.40;;;;;;;23.06;69.68;94843.44;4866950;29;20431;-86
2023/05/31 11:03:23;;;;;;;4.07;3.78;;;;;;;23.35;74.06;94839.44;4886172;29;20245;-78
2023/05/31 11:05:57;;;;;;;5.25;4.10;;;;;;;23.60;74.88;94842.31;4885475;29;20131;-81
2023/05/31 11:08:23;;;;;;;14.45;3.75;;;;;;;23.49;77.34;94845.94;4887151;29;20123;-88
2023/05/31 11:10:48;;;;;;;4.47;4.07;;;;;;;22.68;83.47;94838.28;4886399;29;20505;-87
2023/05/31 11:13:14;;;;;;;5.50;3.90;;;;;;;22.93;82.61;94838.53;4886612;29;20035;-77
2023/05/31 11:15:41;;;;;;;4.78;3.60;;;;;;;22.74;83.33;94826.72;4887150;29;20037;-81
2023/05/31 11:18:09;;;;;;;3.97;3.63;;;;;;;23.63;84.88;94822.50;4886423;29;20107;-84
2023/05/31 11:20:35;;;;;;;10.02;3.47;;;;;;;23.60;80.42;94838.88;4886593;29;20048;-78
2023/05/31 11:23:20;;;;;;;4.15;3.42;;;;;;;23.93;78.83;94833.25;4867802;29;20041;-84
2023/05/31 11:26:08;;;;;;;3.67;3.38;;;;;;;23.89;78.46;94820.81;4869738;29;20037;-80